createdAt,value
2023-03-27T00:01:55.015Z,93717.19
2023-03-27T00:05:05.305Z,93722.47
2023-03-27T00:08:14.976Z,93718.84
2023-03-27T00:11:25.006Z,93733.47
2023-03-27T00:14:33.549Z,93725.34
2023-03-27T00:17:42.127Z,93733.28
2023-03-27T00:20:52.224Z,93719.69
2023-03-27T00:24:00.646Z,93724.75
2023-03-27T00:27:09.580Z,93719.63
2023-03-27T00:30:18.785Z,93714.72
2023-03-27T00:33:27.725Z,93723.69
2023-03-27T00:36:37.556Z,93728.03
2023-03-27T00:39:50.073Z,93723.56
2023-03-27T00:42:59.311Z,93727.59
2023-03-27T00:46:32.270Z,93724.25
2023-03-27T00:49:40.963Z,93729.75
2023-03-27T00:52:58.388Z,93726.88
2023-03-27T00:56:10.486Z,93725.50
2023-03-27T00:59:24.838Z,93728.91
2023-03-27T01:02:33.245Z,93717.94
2023-03-27T01:05:41.734Z,93722.44
2023-03-27T01:08:52.963Z,93723.94
2023-03-27T01:12:20.978Z,93718.03
2023-03-27T01:15:40.132Z,93720.91
2023-03-27T01:19:09.121Z,93719.75
2023-03-27T01:23:09.342Z,93713.69
2023-03-27T01:27:03.759Z,93722.63
2023-03-27T01:30:21.334Z,93719.19
2023-03-27T01:34:01.662Z,93724.28
2023-03-27T01:37:47.980Z,93727.16
2023-03-27T01:41:06.630Z,93717.81
2023-03-27T01:44:21.530Z,93721.06
2023-03-27T01:47:43.526Z,93724.53
2023-03-27T01:50:58.915Z,93724.69
2023-03-27T01:54:17.863Z,93728.75
2023-03-27T01:57:34.302Z,93722.66
2023-03-27T02:00:53.307Z,93727.34
2023-03-27T02:04:06.013Z,93717.16
2023-03-27T02:07:23.535Z,93721.44
2023-03-27T02:10:40.835Z,93727.50
2023-03-27T02:13:58.782Z,93736.59
2023-03-27T02:17:15.176Z,93737.38
2023-03-27T02:20:24.294Z,93743.19
2023-03-27T02:23:32.920Z,93748.84
2023-03-27T02:26:41.175Z,93760.00
2023-03-27T02:30:06.066Z,93755.66
2023-03-27T02:33:28.385Z,93757.09
2023-03-27T02:36:53.412Z,93759.31
2023-03-27T02:40:15.000Z,93762.09
2023-03-27T02:43:32.244Z,93760.09
2023-03-27T02:46:52.932Z,93760.09
2023-03-27T02:50:10.910Z,93768.00
2023-03-27T02:53:25.452Z,93762.09
2023-03-27T02:56:43.507Z,93764.72
2023-03-27T03:00:07.460Z,93769.31
2023-03-27T03:03:32.184Z,93774.78
2023-03-27T03:06:51.295Z,93779.41
2023-03-27T03:09:59.569Z,93786.50
2023-03-27T03:13:08.639Z,93778.81
2023-03-27T03:16:18.564Z,93785.47
2023-03-27T03:19:28.867Z,93784.41
2023-03-27T03:22:38.012Z,93784.59
2023-03-27T03:25:47.953Z,93789.63
2023-03-27T03:29:00.148Z,93793.91
2023-03-27T03:32:09.885Z,93797.09
2023-03-27T03:35:19.838Z,93794.91
2023-03-27T03:38:38.214Z,93804.03
2023-03-27T03:41:53.468Z,93801.72
2023-03-27T03:45:01.698Z,93797.13
2023-03-27T03:48:10.357Z,93801.16
2023-03-27T03:51:19.958Z,93808.25
2023-03-27T03:54:28.396Z,93814.97
2023-03-27T03:57:36.760Z,93818.34
2023-03-27T04:00:50.046Z,93827.06
2023-03-27T04:04:11.428Z,93838.34
2023-03-27T04:07:42.402Z,93839.28
2023-03-27T04:11:01.670Z,93849.19
2023-03-27T04:14:34.925Z,93852.41
2023-03-27T04:17:48.983Z,93852.50
2023-03-27T04:20:58.574Z,93858.31
2023-03-27T04:24:09.196Z,93855.16
2023-03-27T04:27:30.394Z,93872.41
2023-03-27T04:30:50.766Z,93866.81
2023-03-27T04:34:03.101Z,93870.91
2023-03-27T04:37:45.551Z,93872.09
2023-03-27T04:41:14.693Z,93876.16
2023-03-27T04:44:25.116Z,93879.09
2023-03-27T04:47:38.320Z,93879.44
2023-03-27T04:50:49.825Z,93898.41
2023-03-27T04:54:10.613Z,93903.38
2023-03-27T04:57:27.885Z,93914.19
2023-03-27T05:00:40.548Z,93921.78
2023-03-27T05:04:18.326Z,93935.50
2023-03-27T05:07:48.743Z,93939.88
2023-03-27T05:11:02.965Z,93951.84
2023-03-27T05:14:24.115Z,93967.72
2023-03-27T05:17:33.895Z,93973.25
2023-03-27T05:20:43.882Z,93980.34
2023-03-27T05:23:52.188Z,93984.78
2023-03-27T05:27:04.760Z,93992.50
2023-03-27T05:30:16.814Z,94009.06
2023-03-27T05:33:25.731Z,94014.59
2023-03-27T05:36:35.894Z,94028.00
2023-03-27T05:39:46.754Z,94032.44
2023-03-27T05:42:57.147Z,94031.69
2023-03-27T05:46:11.096Z,94044.34
2023-03-27T05:49:20.242Z,94067.41
2023-03-27T05:52:33.638Z,94072.13
2023-03-27T05:55:43.507Z,94090.53
2023-03-27T05:58:52.403Z,94101.16
2023-03-27T06:02:02.076Z,94110.22
2023-03-27T06:05:27.749Z,94122.41
2023-03-27T06:08:36.712Z,94125.28
2023-03-27T06:11:48.311Z,94148.94
2023-03-27T06:14:56.485Z,94152.44
2023-03-27T06:18:27.155Z,94167.19
2023-03-27T06:21:35.741Z,94167.72
2023-03-27T06:24:44.262Z,94191.72
2023-03-27T06:27:56.080Z,94201.59
2023-03-27T06:31:04.737Z,94209.31
2023-03-27T06:34:19.804Z,94230.84
2023-03-27T06:37:37.053Z,94243.31
2023-03-27T06:40:47.162Z,94256.84
2023-03-27T06:43:56.404Z,94275.28
2023-03-27T06:47:14.996Z,94269.06
2023-03-27T06:50:58.683Z,94295.78
2023-03-27T06:54:08.913Z,94309.75
2023-03-27T06:57:20.865Z,94317.78
2023-03-27T07:00:41.505Z,94325.81
2023-03-27T07:04:13.207Z,94318.28
2023-03-27T07:07:37.658Z,94339.44
2023-03-27T07:10:56.442Z,94353.34
2023-03-27T07:14:17.774Z,94366.00
2023-03-27T07:17:29.850Z,94367.47
2023-03-27T07:20:51.123Z,94375.03
2023-03-27T07:24:04.546Z,94385.03
2023-03-27T07:27:14.965Z,94389.28
2023-03-27T07:30:23.909Z,94405.84
2023-03-27T07:33:32.247Z,94416.03
2023-03-27T07:36:41.709Z,94438.31
2023-03-27T07:39:51.388Z,94440.16
2023-03-27T07:43:00.260Z,94451.63
2023-03-27T07:46:08.713Z,94459.50
2023-03-27T07:49:18.665Z,94473.06
2023-03-27T07:52:27.389Z,94484.84
2023-03-27T07:55:46.181Z,94489.94
2023-03-27T07:58:55.254Z,94503.22
2023-03-27T08:02:04.123Z,94509.81
2023-03-27T08:05:14.508Z,94516.69
2023-03-27T08:08:27.307Z,94519.50
2023-03-27T08:11:41.304Z,94532.75
2023-03-27T08:14:49.545Z,94540.56
2023-03-27T08:18:03.535Z,94544.13
2023-03-27T08:21:12.798Z,94558.88
2023-03-27T08:24:21.496Z,94562.19
2023-03-27T08:27:52.302Z,94561.56
2023-03-27T08:31:04.126Z,94578.91
2023-03-27T08:34:17.631Z,94581.28
2023-03-27T08:37:28.994Z,94595.31
2023-03-27T08:40:59.983Z,94603.00
2023-03-27T08:44:21.442Z,94614.94
2023-03-27T08:47:42.168Z,94615.06
2023-03-27T08:51:08.309Z,94629.31
2023-03-27T08:54:20.208Z,94635.38
2023-03-27T08:57:31.640Z,94640.34
2023-03-27T09:00:56.301Z,94647.25
2023-03-27T09:04:21.496Z,94660.00
2023-03-27T09:07:41.772Z,94667.06
2023-03-27T09:11:12.817Z,94662.00
2023-03-27T09:14:37.702Z,94672.34
2023-03-27T09:17:52.814Z,94684.25
2023-03-27T09:21:10.618Z,94688.94
2023-03-27T09:24:31.406Z,94700.28
2023-03-27T09:28:15.298Z,94702.25
2023-03-27T09:31:34.925Z,94709.44
2023-03-27T09:34:49.476Z,94708.97
2023-03-27T09:38:04.049Z,94718.19
2023-03-27T09:41:21.603Z,94724.78
2023-03-27T09:44:37.450Z,94727.56
2023-03-27T09:47:58.019Z,94743.00
2023-03-27T09:51:42.616Z,94739.31
2023-03-27T09:55:27.019Z,94747.19
2023-03-27T09:58:43.614Z,94741.25
2023-03-27T10:01:56.699Z,94749.50
2023-03-27T10:05:16.493Z,94752.50
2023-03-27T10:08:38.824Z,94756.75
2023-03-27T10:12:09.774Z,94757.09
2023-03-27T10:15:35.713Z,94771.44
2023-03-27T10:18:48.449Z,94773.81
2023-03-27T10:22:14.570Z,94774.47
2023-03-27T10:25:34.226Z,94787.41
2023-03-27T10:29:02.706Z,94792.78
2023-03-27T10:32:18.866Z,94799.31
2023-03-27T10:35:50.371Z,94808.94
2023-03-27T10:39:11.619Z,94807.28
2023-03-27T10:42:34.635Z,94811.91
2023-03-27T10:45:51.735Z,94809.69
2023-03-27T10:49:18.275Z,94817.59
2023-03-27T10:52:38.921Z,94826.78
2023-03-27T10:56:08.919Z,94829.41
2023-03-27T10:59:38.338Z,94819.28
2023-03-27T11:03:03.716Z,94833.31
2023-03-27T11:06:18.270Z,94831.28
2023-03-27T11:09:37.020Z,94839.38
2023-03-27T11:12:57.661Z,94839.69
2023-03-27T11:16:20.095Z,94847.25
2023-03-27T11:20:07.235Z,94846.09
2023-03-27T11:23:41.278Z,94859.44
2023-03-27T11:27:15.545Z,94857.38
2023-03-27T11:30:37.302Z,94870.06
2023-03-27T11:33:53.431Z,94864.44
2023-03-27T11:37:08.154Z,94861.97
2023-03-27T11:40:30.122Z,94869.22
2023-03-27T11:43:42.898Z,94870.19
2023-03-27T11:47:49.103Z,94866.91
2023-03-27T11:51:11.415Z,94857.03
2023-03-27T11:54:51.251Z,94868.25
2023-03-27T11:58:27.214Z,94874.34
2023-03-27T12:01:48.776Z,94879.25
2023-03-27T12:05:01.778Z,94874.53
2023-03-27T12:08:51.594Z,94878.50
2023-03-27T12:12:21.756Z,94885.00
2023-03-27T12:16:07.050Z,94883.34
2023-03-27T12:20:09.278Z,94895.84
2023-03-27T12:23:57.464Z,94899.03
2023-03-27T12:27:48.428Z,94898.38
2023-03-27T12:31:46.597Z,94895.41
2023-03-27T12:35:00.704Z,94887.41
2023-03-27T12:38:28.608Z,94910.56
2023-03-27T12:41:45.590Z,94906.53
2023-03-27T12:45:17.886Z,94904.44
2023-03-27T12:48:29.728Z,94901.66
2023-03-27T12:51:47.545Z,94903.97
2023-03-27T12:55:32.326Z,94901.56
2023-03-27T12:58:42.342Z,94899.22
2023-03-27T13:03:07.483Z,94912.84
2023-03-27T13:06:40.493Z,94910.84
2023-03-27T13:10:05.050Z,94921.47
2023-03-27T13:13:52.168Z,94914.84
2023-03-27T13:17:29.387Z,94926.38
2023-03-27T13:20:49.547Z,94937.28
2023-03-27T13:24:24.143Z,94940.03
2023-03-27T13:27:53.423Z,94945.19
2023-03-27T13:31:07.385Z,94953.41
2023-03-27T13:34:40.699Z,94952.59
2023-03-27T13:38:03.729Z,94963.31
2023-03-27T13:42:10.380Z,94956.88
2023-03-27T13:45:34.034Z,94962.97
2023-03-27T13:49:46.233Z,94977.81
2023-03-27T13:53:25.986Z,94970.53
2023-03-27T13:57:03.487Z,94979.28
2023-03-27T14:01:09.445Z,94991.19
2023-03-27T14:04:58.877Z,94982.44
2023-03-27T14:08:31.071Z,94986.38
2023-03-27T14:12:15.727Z,94993.00
2023-03-27T14:16:25.886Z,94986.72
2023-03-27T14:20:16.752Z,94982.44
2023-03-27T14:23:32.734Z,94986.84
2023-03-27T14:27:03.279Z,94984.81
2023-03-27T14:30:22.322Z,94998.44
2023-03-27T14:33:51.288Z,95007.47
2023-03-27T14:37:02.088Z,95012.13
2023-03-27T14:40:26.213Z,95014.09
2023-03-27T14:43:38.241Z,95019.53
2023-03-27T14:46:49.054Z,95028.59
2023-03-27T14:50:01.821Z,95035.50
2023-03-27T14:53:44.594Z,95042.03
2023-03-27T14:57:11.012Z,95072.19
2023-03-27T15:00:33.497Z,95099.19
2023-03-27T15:03:41.899Z,95104.03
2023-03-27T15:06:57.524Z,95108.19
2023-03-27T15:10:31.565Z,95115.34
2023-03-27T15:13:49.629Z,95107.69
2023-03-27T15:17:17.163Z,95093.28
2023-03-27T15:20:32.105Z,95098.38
2023-03-27T15:23:46.728Z,95097.38
2023-03-27T15:26:58.271Z,95101.47
2023-03-27T15:30:30.200Z,95098.69
2023-03-27T15:33:56.389Z,95107.63
2023-03-27T15:37:11.457Z,95126.56
2023-03-27T15:40:42.174Z,95114.38
2023-03-27T15:43:53.785Z,95114.53
2023-03-27T15:47:02.986Z,95114.69
2023-03-27T15:50:21.469Z,95116.16
2023-03-27T15:53:39.651Z,95125.00
2023-03-27T15:56:48.336Z,95126.91
2023-03-27T16:00:04.175Z,95136.56
2023-03-27T16:03:24.490Z,95141.38
2023-03-27T16:06:39.633Z,95146.16
2023-03-27T16:09:54.723Z,95146.97
2023-03-27T16:13:06.559Z,95140.88
2023-03-27T16:16:28.791Z,95145.03
2023-03-27T16:19:44.648Z,95143.28
2023-03-27T16:22:53.623Z,95145.50
2023-03-27T16:26:04.655Z,95140.22
2023-03-27T16:29:15.971Z,95136.91
2023-03-27T16:32:27.278Z,95145.47
2023-03-27T16:35:39.106Z,95143.22
2023-03-27T16:38:48.798Z,95145.66
2023-03-27T16:41:57.265Z,95149.50
2023-03-27T16:45:07.325Z,95156.38
2023-03-27T16:48:17.833Z,95164.66
2023-03-27T16:51:30.036Z,95156.53
2023-03-27T16:54:39.373Z,95171.00
2023-03-27T16:57:48.071Z,95169.94
2023-03-27T17:00:56.996Z,95180.19
2023-03-27T17:04:07.692Z,95180.19
2023-03-27T17:07:16.332Z,95209.38
2023-03-27T17:10:24.896Z,95225.75
2023-03-27T17:13:33.734Z,95233.97
2023-03-27T17:16:42.776Z,95240.03
2023-03-27T17:19:54.132Z,95244.31
2023-03-27T17:23:02.503Z,95234.38
2023-03-27T17:26:16.052Z,95241.97
2023-03-27T17:29:25.510Z,95239.22
2023-03-27T17:32:36.007Z,95245.03
2023-03-27T17:35:46.085Z,95243.81
2023-03-27T17:38:54.973Z,95251.25
2023-03-27T17:42:03.685Z,95254.69
2023-03-27T17:45:12.811Z,95254.78
2023-03-27T17:48:21.225Z,95265.41
2023-03-27T17:51:31.227Z,95265.53
2023-03-27T17:54:40.283Z,95271.59
2023-03-27T17:57:55.705Z,95283.72
2023-03-27T18:01:16.390Z,95286.84
2023-03-27T18:04:25.286Z,95292.09
2023-03-27T18:07:35.095Z,95284.22
2023-03-27T18:10:48.429Z,95325.66
2023-03-27T18:13:56.823Z,95330.97
2023-03-27T18:17:05.045Z,95319.41
2023-03-27T18:20:13.661Z,95294.88
2023-03-27T18:23:23.417Z,95296.84
2023-03-27T18:26:31.652Z,95296.72
2023-03-27T18:29:39.969Z,95301.25
2023-03-27T18:32:48.859Z,95298.75
2023-03-27T18:35:58.561Z,95299.06
2023-03-27T18:39:08.573Z,95302.91
2023-03-27T18:42:17.145Z,95310.19
2023-03-27T18:45:25.866Z,95300.72
2023-03-27T18:48:35.743Z,95311.06
2023-03-27T18:51:44.102Z,95312.88
2023-03-27T18:54:54.387Z,95313.94
2023-03-27T18:58:02.922Z,95323.72
2023-03-27T19:01:11.588Z,95331.41
2023-03-27T19:04:20.008Z,95334.31
2023-03-27T19:07:28.141Z,95324.09
2023-03-27T19:10:39.094Z,95315.13
2023-03-27T19:14:02.916Z,95313.47
2023-03-27T19:17:15.057Z,95315.94
2023-03-27T19:20:41.483Z,95323.88
2023-03-27T19:24:01.736Z,95324.59
2023-03-27T19:27:23.822Z,95332.41
2023-03-27T19:30:34.534Z,95331.03
2023-03-27T19:33:43.013Z,95337.09
2023-03-27T19:36:52.326Z,95339.53
2023-03-27T19:40:01.495Z,95347.69
2023-03-27T19:43:11.393Z,95351.50
2023-03-27T19:46:20.780Z,95352.84
2023-03-27T19:49:33.126Z,95357.50
2023-03-27T19:53:08.978Z,95358.63
2023-03-27T19:56:17.831Z,95360.31
2023-03-27T19:59:30.818Z,95354.91
2023-03-27T20:02:39.707Z,95351.75
2023-03-27T20:05:49.952Z,95362.69
2023-03-27T20:09:00.649Z,95360.28
2023-03-27T20:12:11.224Z,95358.31
2023-03-27T20:15:21.518Z,95367.47
2023-03-27T20:18:32.716Z,95353.56
2023-03-27T20:21:43.579Z,95363.59
2023-03-27T20:24:54.837Z,95363.31
2023-03-27T20:28:07.227Z,95357.97
2023-03-27T20:31:19.897Z,95372.69
2023-03-27T20:34:28.505Z,95361.53
2023-03-27T20:37:39.577Z,95357.78
2023-03-27T20:40:57.822Z,95363.91
2023-03-27T20:44:15.464Z,95364.66
2023-03-27T20:47:26.258Z,95367.25
2023-03-27T20:50:36.450Z,95372.09
2023-03-27T20:53:54.412Z,95371.03
2023-03-27T20:57:04.575Z,95368.69
2023-03-27T21:00:17.039Z,95375.84
2023-03-27T21:03:31.830Z,95368.00
2023-03-27T21:06:41.656Z,95358.69
2023-03-27T21:09:50.366Z,95366.22
2023-03-27T21:12:58.999Z,95356.41
2023-03-27T21:16:08.465Z,95364.03
2023-03-27T21:19:18.059Z,95363.19
2023-03-27T21:22:27.335Z,95359.88
2023-03-27T21:25:36.349Z,95363.19
2023-03-27T21:28:47.648Z,95362.75
2023-03-27T21:31:56.171Z,95367.47
2023-03-27T21:35:06.779Z,95370.06
2023-03-27T21:38:16.454Z,95377.94
2023-03-27T21:41:26.019Z,95373.66
2023-03-27T21:44:34.436Z,95374.50
2023-03-27T21:47:47.618Z,95365.84
2023-03-27T21:51:01.344Z,95374.25
2023-03-27T21:54:09.713Z,95379.94
2023-03-27T21:57:18.366Z,95380.66
2023-03-27T22:00:27.147Z,95390.38
2023-03-27T22:03:35.586Z,95395.97
2023-03-27T22:06:46.624Z,95398.38
2023-03-27T22:09:54.867Z,95407.88
2023-03-27T22:13:03.486Z,95399.53
2023-03-27T22:16:14.043Z,95405.47
2023-03-27T22:19:22.525Z,95410.38
2023-03-27T22:22:34.271Z,95416.19
2023-03-27T22:25:42.391Z,95420.06
2023-03-27T22:28:52.649Z,95432.84
2023-03-27T22:32:01.233Z,95430.97
2023-03-27T22:35:11.254Z,95439.41
2023-03-27T22:38:21.085Z,95444.38
2023-03-27T22:41:29.338Z,95438.09
2023-03-27T22:44:37.564Z,95441.41
2023-03-27T22:47:45.930Z,95445.59
2023-03-27T22:50:58.560Z,95441.69
2023-03-27T22:54:08.693Z,95449.59
2023-03-27T22:57:16.956Z,95456.63
2023-03-27T23:00:25.352Z,95461.88
2023-03-27T23:03:33.931Z,95462.38
2023-03-27T23:06:42.495Z,95458.06
2023-03-27T23:09:52.330Z,95461.16
2023-03-27T23:13:01.371Z,95464.97
2023-03-27T23:16:10.958Z,95461.00
2023-03-27T23:19:19.692Z,95460.91
2023-03-27T23:22:28.034Z,95466.09
2023-03-27T23:25:38.267Z,95461.78
2023-03-27T23:28:47.781Z,95463.41
2023-03-27T23:31:55.949Z,95468.16
2023-03-27T23:35:05.034Z,95473.25
2023-03-27T23:38:13.800Z,95485.38
2023-03-27T23:41:23.858Z,95474.50
2023-03-27T23:44:32.168Z,95477.28
2023-03-27T23:47:40.696Z,95475.75
2023-03-27T23:50:49.542Z,95490.00
2023-03-27T23:53:58.553Z,95476.69
2023-03-27T23:57:08.451Z,95486.34
